sensor_id;sensor_type;location;lat;lon;timestamp;pressure;altitude;pressure_sealevel;temperature;humidity
76285;BME280;71676;50.998;7.098;2024-03-25T00:00:31;100152.16;;;5.99;59.79
76285;BME280;71676;50.998;7.098;2024-03-25T00:02:56;100158.00;;;5.92;60.35
76285;BME280;71676;50.998;7.098;2024-03-25T00:05:23;100162.25;;;5.91;60.38
76285;BME280;71676;50.998;7.098;2024-03-25T00:07:51;100153.59;;;5.85;60.79
76285;BME280;71676;50.998;7.098;2024-03-25T00:10:18;100160.56;;;5.92;60.13
76285;BME280;71676;50.998;7.098;2024-03-25T00:12:46;100130.47;;;5.77;60.12
76285;BME280;71676;50.998;7.098;2024-03-25T00:15:14;100156.38;;;5.97;59.93
76285;BME280;71676;50.998;7.098;2024-03-25T00:17:40;100136.56;;;5.85;59.56
76285;BME280;71676;50.998;7.098;2024-03-25T00:20:08;100165.72;;;5.95;59.36
76285;BME280;71676;50.998;7.098;2024-03-25T00:22:35;100142.31;;;5.72;59.69
76285;BME280;71676;50.998;7.098;2024-03-25T00:25:01;100162.94;;;5.80;59.89
76285;BME280;71676;50.998;7.098;2024-03-25T00:27:27;100160.41;;;5.81;60.39
76285;BME280;71676;50.998;7.098;2024-03-25T00:29:55;100167.28;;;5.85;60.10
76285;BME280;71676;50.998;7.098;2024-03-25T00:32:22;100164.81;;;5.91;59.23
76285;BME280;71676;50.998;7.098;2024-03-25T00:34:49;100159.59;;;5.85;59.73
76285;BME280;71676;50.998;7.098;2024-03-25T00:37:14;100161.22;;;5.80;60.13
76285;BME280;71676;50.998;7.098;2024-03-25T00:39:41;100161.19;;;5.79;60.30
76285;BME280;71676;50.998;7.098;2024-03-25T00:42:07;100167.25;;;5.84;59.75
76285;BME280;71676;50.998;7.098;2024-03-25T00:44:33;100162.78;;;5.72;60.22
76285;BME280;71676;50.998;7.098;2024-03-25T00:46:59;100168.72;;;5.70;60.36
76285;BME280;71676;50.998;7.098;2024-03-25T00:49:27;100165.34;;;5.72;60.15
76285;BME280;71676;50.998;7.098;2024-03-25T00:51:53;100156.84;;;5.72;60.67
76285;BME280;71676;50.998;7.098;2024-03-25T00:54:19;100161.16;;;5.76;60.03
76285;BME280;71676;50.998;7.098;2024-03-25T00:56:45;100156.75;;;5.69;60.79
76285;BME280;71676;50.998;7.098;2024-03-25T00:59:12;100152.56;;;5.74;60.34
76285;BME280;71676;50.998;7.098;2024-03-25T01:01:37;100161.88;;;5.69;60.80
76285;BME280;71676;50.998;7.098;2024-03-25T01:04:04;100156.75;;;5.69;60.66
76285;BME280;71676;50.998;7.098;2024-03-25T01:06:31;100151.63;;;5.69;60.75
76285;BME280;71676;50.998;7.098;2024-03-25T01:08:58;100150.78;;;5.67;60.82
76285;BME280;71676;50.998;7.098;2024-03-25T01:11:24;100154.97;;;5.63;61.23
76285;BME280;71676;50.998;7.098;2024-03-25T01:13:51;100149.88;;;5.65;61.14
76285;BME280;71676;50.998;7.098;2024-03-25T01:16:16;100158.41;;;5.65;61.13
76285;BME280;71676;50.998;7.098;2024-03-25T01:18:43;100166.19;;;5.71;60.83
76285;BME280;71676;50.998;7.098;2024-03-25T01:21:09;100155.88;;;5.65;61.04
76285;BME280;71676;50.998;7.098;2024-03-25T01:23:37;100156.69;;;5.64;61.03
76285;BME280;71676;50.998;7.098;2024-03-25T01:26:02;100154.00;;;5.57;61.78
76285;BME280;71676;50.998;7.098;2024-03-25T01:28:29;100156.56;;;5.58;61.44
76285;BME280;71676;50.998;7.098;2024-03-25T01:30:55;100159.16;;;5.60;61.42
76285;BME280;71676;50.998;7.098;2024-03-25T01:33:21;100162.50;;;5.54;61.39
76285;BME280;71676;50.998;7.098;2024-03-25T01:35:47;100161.56;;;5.51;61.82
76285;BME280;71676;50.998;7.098;2024-03-25T01:38:14;100159.13;;;5.58;61.42
76285;BME280;71676;50.998;7.098;2024-03-25T01:40:41;100153.91;;;5.52;61.64
76285;BME280;71676;50.998;7.098;2024-03-25T01:43:07;100167.59;;;5.54;61.92
76285;BME280;71676;50.998;7.098;2024-03-25T01:45:34;100164.41;;;5.67;60.79
76285;BME280;71676;50.998;7.098;2024-03-25T01:48:03;100161.81;;;5.66;61.09
76285;BME280;71676;50.998;7.098;2024-03-25T01:50:30;100147.84;;;5.46;61.98
76285;BME280;71676;50.998;7.098;2024-03-25T01:52:59;100159.00;;;5.51;62.11
76285;BME280;71676;50.998;7.098;2024-03-25T01:55:27;100162.50;;;5.56;61.88
76285;BME280;71676;50.998;7.098;2024-03-25T01:57:56;100135.75;;;5.39;62.35
76285;BME280;71676;50.998;7.098;2024-03-25T02:00:22;100165.09;;;5.57;62.01
76285;BME280;71676;50.998;7.098;2024-03-25T02:02:50;100155.75;;;5.61;61.78
76285;BME280;71676;50.998;7.098;2024-03-25T02:05:16;100163.50;;;5.62;61.57
76285;BME280;71676;50.998;7.098;2024-03-25T02:07:44;100166.09;;;5.65;61.18
76285;BME280;71676;50.998;7.098;2024-03-25T02:10:10;100161.03;;;5.68;60.98
76285;BME280;71676;50.998;7.098;2024-03-25T02:12:40;100165.31;;;5.71;60.51
76285;BME280;71676;50.998;7.098;2024-03-25T02:15:09;100165.13;;;5.59;61.24
76285;BME280;71676;50.998;7.098;2024-03-25T02:17:36;100164.19;;;5.55;61.42
76285;BME280;71676;50.998;7.098;2024-03-25T02:20:02;100165.00;;;5.53;61.50
76285;BME280;71676;50.998;7.098;2024-03-25T02:22:30;100159.97;;;5.56;61.33
76285;BME280;71676;50.998;7.098;2024-03-25T02:24:57;100172.78;;;5.59;61.13
76285;BME280;71676;50.998;7.098;2024-03-25T02:27:26;100168.38;;;5.50;61.01
76285;BME280;71676;50.998;7.098;2024-03-25T02:29:53;100182.16;;;5.58;60.80
76285;BME280;71676;50.998;7.098;2024-03-25T02:32:20;100176.97;;;5.54;60.76
76285;BME280;71676;50.998;7.098;2024-03-25T02:34:47;100172.53;;;5.45;61.20
76285;BME280;71676;50.998;7.098;2024-03-25T02:37:14;100171.59;;;5.40;61.30
76285;BME280;71676;50.998;7.098;2024-03-25T02:39:40;100174.13;;;5.40;61.26
76285;BME280;71676;50.998;7.098;2024-03-25T02:42:07;100176.50;;;5.30;61.78
76285;BME280;71676;50.998;7.098;2024-03-25T02:44:34;100176.56;;;5.33;61.56
76285;BME280;71676;50.998;7.098;2024-03-25T02:47:01;100173.06;;;5.28;62.01
76285;BME280;71676;50.998;7.098;2024-03-25T02:49:27;100170.53;;;5.29;62.09
76285;BME280;71676;50.998;7.098;2024-03-25T02:51:54;100105.16;;;4.97;61.65
76285;BME280;71676;50.998;7.098;2024-03-25T02:54:20;100168.03;;;5.34;62.01
76285;BME280;71676;50.998;7.098;2024-03-25T02:56:46;100176.53;;;5.31;61.64
76285;BME280;71676;50.998;7.098;2024-03-25T02:59:12;100173.31;;;5.40;61.54
76285;BME280;71676;50.998;7.098;2024-03-25T03:01:40;100161.19;;;5.31;61.86
76285;BME280;71676;50.998;7.098;2024-03-25T03:04:06;100165.63;;;5.40;61.64
76285;BME280;71676;50.998;7.098;2024-03-25T03:06:32;100173.28;;;5.38;61.93
76285;BME280;71676;50.998;7.098;2024-03-25T03:08:58;100162.31;;;5.45;61.37
76285;BME280;71676;50.998;7.098;2024-03-25T03:11:24;100163.13;;;5.43;61.87
76285;BME280;71676;50.998;7.098;2024-03-25T03:13:50;100163.09;;;5.41;61.54
76285;BME280;71676;50.998;7.098;2024-03-25T03:16:16;100158.88;;;5.45;61.48
76285;BME280;71676;50.998;7.098;2024-03-25T03:18:43;100160.59;;;5.44;61.41
76285;BME280;71676;50.998;7.098;2024-03-25T03:21:10;100157.19;;;5.45;61.20
76285;BME280;71676;50.998;7.098;2024-03-25T03:23:35;100149.56;;;5.48;61.38
76285;BME280;71676;50.998;7.098;2024-03-25T03:26:02;100153.06;;;5.52;61.22
76285;BME280;71676;50.998;7.098;2024-03-25T03:28:28;100149.56;;;5.48;61.47
76285;BME280;71676;50.998;7.098;2024-03-25T03:30:54;100148.75;;;5.49;61.08
76285;BME280;71676;50.998;7.098;2024-03-25T03:33:20;100140.25;;;5.52;60.79
76285;BME280;71676;50.998;7.098;2024-03-25T03:35:49;100142.78;;;5.50;61.05
76285;BME280;71676;50.998;7.098;2024-03-25T03:38:15;100147.03;;;5.50;61.37
76285;BME280;71676;50.998;7.098;2024-03-25T03:40:41;100144.47;;;5.50;60.74
76285;BME280;71676;50.998;7.098;2024-03-25T03:43:07;100149.53;;;5.47;60.57
76285;BME280;71676;50.998;7.098;2024-03-25T03:45:34;100150.41;;;5.47;60.90
76285;BME280;71676;50.998;7.098;2024-03-25T03:47:59;100143.41;;;5.37;61.23
76285;BME280;71676;50.998;7.098;2024-03-25T03:50:26;100155.41;;;5.40;61.30
76285;BME280;71676;50.998;7.098;2024-03-25T03:52:53;100148.47;;;5.34;61.10
76285;BME280;71676;50.998;7.098;2024-03-25T03:55:19;100162.19;;;5.39;61.39
76285;BME280;71676;50.998;7.098;2024-03-25T03:57:45;100161.38;;;5.42;61.06
76285;BME280;71676;50.998;7.098;2024-03-25T04:00:13;100163.13;;;5.43;60.56
76285;BME280;71676;50.998;7.098;2024-03-25T04:02:39;100162.06;;;5.32;61.07
76285;BME280;71676;50.998;7.098;2024-03-25T04:05:06;100167.97;;;5.29;61.31
76285;BME280;71676;50.998;7.098;2024-03-25T04:07:31;100159.53;;;5.33;61.20
76285;BME280;71676;50.998;7.098;2024-03-25T04:09:59;100166.38;;;5.34;61.39
76285;BME280;71676;50.998;7.098;2024-03-25T04:12:25;100162.09;;;5.33;61.42
76285;BME280;71676;50.998;7.098;2024-03-25T04:14:52;100165.59;;;5.38;61.27
76285;BME280;71676;50.998;7.098;2024-03-25T04:17:20;100168.06;;;5.35;61.54
76285;BME280;71676;50.998;7.098;2024-03-25T04:19:48;100162.97;;;5.35;61.49
76285;BME280;71676;50.998;7.098;2024-03-25T04:22:13;100162.19;;;5.39;61.49
76285;BME280;71676;50.998;7.098;2024-03-25T04:24:40;100163.88;;;5.39;61.66
76285;BME280;71676;50.998;7.098;2024-03-25T04:27:07;100160.41;;;5.35;61.30
76285;BME280;71676;50.998;7.098;2024-03-25T04:29:47;100159.41;;;5.27;61.92
76285;BME280;71676;50.998;7.098;2024-03-25T04:32:13;100158.53;;;5.25;61.82
76285;BME280;71676;50.998;7.098;2024-03-25T04:34:39;100160.34;;;5.32;61.87
76285;BME280;71676;50.998;7.098;2024-03-25T04:37:06;100160.34;;;5.32;61.56
76285;BME280;71676;50.998;7.098;2024-03-25T04:39:31;100158.69;;;5.34;61.67
76285;BME280;71676;50.998;7.098;2024-03-25T04:41:57;100163.03;;;5.37;61.88
76285;BME280;71676;50.998;7.098;2024-03-25T04:44:23;100158.78;;;5.39;61.74
76285;BME280;71676;50.998;7.098;2024-03-25T04:46:50;100163.03;;;5.38;61.42
76285;BME280;71676;50.998;7.098;2024-03-25T04:49:15;100167.31;;;5.39;61.63
76285;BME280;71676;50.998;7.098;2024-03-25T04:51:41;100173.31;;;5.40;61.52
76285;BME280;71676;50.998;7.098;2024-03-25T04:54:07;100167.31;;;5.39;61.41
76285;BME280;71676;50.998;7.098;2024-03-25T04:56:32;100165.56;;;5.37;61.58
76285;BME280;71676;50.998;7.098;2024-03-25T04:58:58;100169.88;;;5.39;61.46
76285;BME280;71676;50.998;7.098;2024-03-25T05:01:24;100172.44;;;5.41;61.16
76285;BME280;71676;50.998;7.098;2024-03-25T05:03:51;100170.72;;;5.38;61.22
76285;BME280;71676;50.998;7.098;2024-03-25T05:06:17;100173.25;;;5.37;61.33
76285;BME280;71676;50.998;7.098;2024-03-25T05:08:42;100175.69;;;5.32;61.47
76285;BME280;71676;50.998;7.098;2024-03-25T05:11:08;100180.00;;;5.33;61.29
76285;BME280;71676;50.998;7.098;2024-03-25T05:13:34;100179.16;;;5.34;61.61
76285;BME280;71676;50.998;7.098;2024-03-25T05:15:59;100187.59;;;5.30;61.32
76285;BME280;71676;50.998;7.098;2024-03-25T05:18:25;100179.03;;;5.28;61.43
76285;BME280;71676;50.998;7.098;2024-03-25T05:20:52;100176.47;;;5.27;61.21
76285;BME280;71676;50.998;7.098;2024-03-25T05:23:18;100177.25;;;5.24;61.34
76285;BME280;71676;50.998;7.098;2024-03-25T05:25:43;100186.63;;;5.24;61.46
76285;BME280;71676;50.998;7.098;2024-03-25T05:28:09;100186.59;;;5.22;61.10
76285;BME280;71676;50.998;7.098;2024-03-25T05:30:35;100178.84;;;5.19;61.06
76285;BME280;71676;50.998;7.098;2024-03-25T05:33:00;100182.19;;;5.15;61.07
76285;BME280;71676;50.998;7.098;2024-03-25T05:35:26;100184.69;;;5.12;61.32
76285;BME280;71676;50.998;7.098;2024-03-25T05:37:53;100184.69;;;5.12;61.28
76285;BME280;71676;50.998;7.098;2024-03-25T05:40:19;100174.34;;;5.06;61.35
76285;BME280;71676;50.998;7.098;2024-03-25T05:42:45;100151.13;;;4.96;61.30
76285;BME280;71676;50.998;7.098;2024-03-25T05:45:11;100162.31;;;5.01;61.32
76285;BME280;71676;50.998;7.098;2024-03-25T05:47:36;100158.09;;;5.03;61.44
76285;BME280;71676;50.998;7.098;2024-03-25T05:50:02;100173.53;;;5.09;61.00
76285;BME280;71676;50.998;7.098;2024-03-25T05:52:28;100170.97;;;5.09;61.05
76285;BME280;71676;50.998;7.098;2024-03-25T05:54:55;100172.66;;;5.08;60.83
76285;BME280;71676;50.998;7.098;2024-03-25T05:57:21;100177.75;;;5.07;60.97
76285;BME280;71676;50.998;7.098;2024-03-25T05:59:46;100186.19;;;5.03;60.59
76285;BME280;71676;50.998;7.098;2024-03-25T06:02:12;100192.09;;;5.00;60.69
76285;BME280;71676;50.998;7.098;2024-03-25T06:04:38;100194.59;;;4.97;60.87
76285;BME280;71676;50.998;7.098;2024-03-25T06:07:03;100191.94;;;4.92;61.09
76285;BME280;71676;50.998;7.098;2024-03-25T06:09:29;100203.09;;;4.96;61.33
76285;BME280;71676;50.998;7.098;2024-03-25T06:11:56;100198.81;;;4.95;61.13
76285;BME280;71676;50.998;7.098;2024-03-25T06:14:22;100193.72;;;4.95;61.16
76285;BME280;71676;50.998;7.098;2024-03-25T06:16:47;100198.81;;;4.95;60.99
76285;BME280;71676;50.998;7.098;2024-03-25T06:19:13;100198.81;;;4.95;61.05
76285;BME280;71676;50.998;7.098;2024-03-25T06:21:39;100192.84;;;4.95;61.07
76285;BME280;71676;50.998;7.098;2024-03-25T06:24:05;100195.41;;;4.95;61.14
76285;BME280;71676;50.998;7.098;2024-03-25T06:26:30;100197.94;;;4.95;62.10
76285;BME280;71676;50.998;7.098;2024-03-25T06:28:57;100194.50;;;4.92;61.46
76285;BME280;71676;50.998;7.098;2024-03-25T06:31:23;100203.00;;;4.92;61.58
76285;BME280;71676;50.998;7.098;2024-03-25T06:34:07;100196.84;;;4.82;62.43
76285;BME280;71676;50.998;7.098;2024-03-25T06:36:42;100198.03;;;4.59;63.32
76285;BME280;71676;50.998;7.098;2024-03-25T06:39:08;100196.91;;;4.46;63.17
76285;BME280;71676;50.998;7.098;2024-03-25T06:41:34;100202.41;;;4.29;64.38
76285;BME280;71676;50.998;7.098;2024-03-25T06:44:01;100203.28;;;4.29;64.52
76285;BME280;71676;50.998;7.098;2024-03-25T06:46:27;100203.91;;;4.21;64.64
76285;BME280;71676;50.998;7.098;2024-03-25T06:48:53;100206.56;;;4.25;64.82
76285;BME280;71676;50.998;7.098;2024-03-25T06:51:18;100200.50;;;4.20;64.79
76285;BME280;71676;50.998;7.098;2024-03-25T06:53:44;100209.19;;;4.28;64.95
76285;BME280;71676;50.998;7.098;2024-03-25T06:56:10;100209.63;;;4.45;64.26
76285;BME280;71676;50.998;7.098;2024-03-25T06:58:35;100217.59;;;4.60;63.55
76285;BME280;71676;50.998;7.098;2024-03-25T07:01:06;100210.94;;;4.66;63.80
76285;BME280;71676;50.998;7.098;2024-03-25T07:03:33;100215.88;;;4.57;63.41
76285;BME280;71676;50.998;7.098;2024-03-25T07:05:59;100206.84;;;4.73;63.25
76285;BME280;71676;50.998;7.098;2024-03-25T07:08:25;100211.06;;;4.71;63.03
76285;BME280;71676;50.998;7.098;2024-03-25T07:10:51;100208.56;;;4.72;63.46
76285;BME280;71676;50.998;7.098;2024-03-25T07:13:17;100210.63;;;4.90;63.07
76285;BME280;71676;50.998;7.098;2024-03-25T07:15:43;100210.94;;;5.05;62.81
76285;BME280;71676;50.998;7.098;2024-03-25T07:18:10;100210.31;;;5.17;62.59
76285;BME280;71676;50.998;7.098;2024-03-25T07:20:36;100215.41;;;5.15;62.24
76285;BME280;71676;50.998;7.098;2024-03-25T07:23:03;100213.25;;;5.35;62.01
76285;BME280;71676;50.998;7.098;2024-03-25T07:25:28;100202.44;;;5.48;59.90
76285;BME280;71676;50.998;7.098;2024-03-25T07:27:54;100211.97;;;5.58;61.46
76285;BME280;71676;50.998;7.098;2024-03-25T07:30:20;100213.22;;;5.78;61.23
76285;BME280;71676;50.998;7.098;2024-03-25T07:32:46;100172.44;;;5.41;60.29
76285;BME280;71676;50.998;7.098;2024-03-25T07:35:13;100207.25;;;5.80;60.97
76285;BME280;71676;50.998;7.098;2024-03-25T07:37:39;100202.50;;;6.00;60.03
76285;BME280;71676;50.998;7.098;2024-03-25T07:40:06;100202.78;;;6.16;61.30
76285;BME280;71676;50.998;7.098;2024-03-25T07:42:32;100196.94;;;6.25;60.90
76285;BME280;71676;50.998;7.098;2024-03-25T07:44:57;100200.66;;;6.42;59.72
76285;BME280;71676;50.998;7.098;2024-03-25T07:47:23;100203.53;;;6.65;59.83
76285;BME280;71676;50.998;7.098;2024-03-25T07:49:49;100197.00;;;6.86;58.30
76285;BME280;71676;50.998;7.098;2024-03-25T07:52:16;100199.72;;;6.98;58.09
76285;BME280;71676;50.998;7.098;2024-03-25T07:54:41;100197.03;;;6.89;56.76
76285;BME280;71676;50.998;7.098;2024-03-25T07:57:07;100201.50;;;7.04;57.76
76285;BME280;71676;50.998;7.098;2024-03-25T07:59:32;100195.75;;;7.26;58.52
76285;BME280;71676;50.998;7.098;2024-03-25T08:01:58;100191.78;;;7.50;56.56
76285;BME280;71676;50.998;7.098;2024-03-25T08:04:24;100193.59;;;7.60;55.42
76285;BME280;71676;50.998;7.098;2024-03-25T08:06:49;100190.13;;;7.57;54.41
76285;BME280;71676;50.998;7.098;2024-03-25T08:09:17;100202.22;;;7.67;55.53
76285;BME280;71676;50.998;7.098;2024-03-25T08:11:43;100199.81;;;7.81;56.63
76285;BME280;71676;50.998;7.098;2024-03-25T08:14:09;100198.28;;;7.99;54.17
76285;BME280;71676;50.998;7.098;2024-03-25T08:16:34;100192.25;;;7.96;54.20
76285;BME280;71676;50.998;7.098;2024-03-25T08:19:00;100193.34;;;8.23;53.40
76285;BME280;71676;50.998;7.098;2024-03-25T08:21:39;100188.31;;;8.40;53.66
76285;BME280;71676;50.998;7.098;2024-03-25T08:24:05;100196.88;;;8.40;52.72
76285;BME280;71676;50.998;7.098;2024-03-25T08:26:31;100189.19;;;8.45;53.65
76285;BME280;71676;50.998;7.098;2024-03-25T08:28:56;100184.22;;;8.69;54.50
76285;BME280;71676;50.998;7.098;2024-03-25T08:31:22;100186.94;;;9.03;54.80
76285;BME280;71676;50.998;7.098;2024-03-25T08:33:48;100183.66;;;9.30;51.89
76285;BME280;71676;50.998;7.098;2024-03-25T08:36:13;100178.53;;;9.42;51.86
76285;BME280;71676;50.998;7.098;2024-03-25T08:38:40;100182.84;;;9.46;49.84
76285;BME280;71676;50.998;7.098;2024-03-25T08:41:06;100185.44;;;9.54;51.86
76285;BME280;71676;50.998;7.098;2024-03-25T08:43:31;100188.03;;;9.82;51.15
76285;BME280;71676;50.998;7.098;2024-03-25T08:45:57;100179.47;;;10.01;50.99
76285;BME280;71676;50.998;7.098;2024-03-25T08:48:23;100175.16;;;10.29;49.14
76285;BME280;71676;50.998;7.098;2024-03-25T08:50:48;100179.47;;;10.46;47.53
76285;BME280;71676;50.998;7.098;2024-03-25T08:53:14;100174.25;;;10.75;49.73
76285;BME280;71676;50.998;7.098;2024-03-25T08:55:45;100168.16;;;11.03;50.32
76285;BME280;71676;50.998;7.098;2024-03-25T08:58:12;100165.50;;;11.15;46.41
76285;BME280;71676;50.998;7.098;2024-03-25T09:00:37;100169.88;;;10.92;42.63
76285;BME280;71676;50.998;7.098;2024-03-25T09:03:03;100181.03;;;11.00;44.78
76285;BME280;71676;50.998;7.098;2024-03-25T09:05:29;100164.66;;;11.12;47.46
76285;BME280;71676;50.998;7.098;2024-03-25T09:07:54;100168.91;;;11.20;44.74
76285;BME280;71676;50.998;7.098;2024-03-25T09:10:20;100163.81;;;11.04;42.61
76285;BME280;71676;50.998;7.098;2024-03-25T09:13:05;100154.50;;;10.63;43.60
76285;BME280;71676;50.998;7.098;2024-03-25T09:15:31;100171.66;;;10.84;47.53
76285;BME280;71676;50.998;7.098;2024-03-25T09:17:57;100167.31;;;10.89;42.07
76285;BME280;71676;50.998;7.098;2024-03-25T09:20:22;100167.19;;;11.16;45.95
76285;BME280;71676;50.998;7.098;2024-03-25T09:22:48;100165.31;;;11.54;44.09
76285;BME280;71676;50.998;7.098;2024-03-25T09:25:14;100163.47;;;11.73;46.16
76285;BME280;71676;50.998;7.098;2024-03-25T09:27:40;100161.56;;;11.96;46.43
76285;BME280;71676;50.998;7.098;2024-03-25T09:30:08;100153.59;;;12.22;42.88
76285;BME280;71676;50.998;7.098;2024-03-25T09:32:34;100152.47;;;12.48;40.16
76285;BME280;71676;50.998;7.098;2024-03-25T09:34:59;100141.19;;;12.60;41.26
76285;BME280;71676;50.998;7.098;2024-03-25T09:37:25;100136.91;;;12.56;39.69
76285;BME280;71676;50.998;7.098;2024-03-25T09:39:50;100137.88;;;12.40;40.58
76285;BME280;71676;50.998;7.098;2024-03-25T09:42:25;100134.56;;;12.29;41.49
76285;BME280;71676;50.998;7.098;2024-03-25T09:44:53;100147.59;;;12.18;39.56
76285;BME280;71676;50.998;7.098;2024-03-25T09:47:21;100138.13;;;12.14;41.15
76285;BME280;71676;50.998;7.098;2024-03-25T09:49:48;100144.72;;;12.47;38.25
76285;BME280;71676;50.998;7.098;2024-03-25T09:52:14;100139.63;;;12.41;38.09
76285;BME280;71676;50.998;7.098;2024-03-25T09:54:39;100132.66;;;12.47;38.61
76285;BME280;71676;50.998;7.098;2024-03-25T09:57:05;100128.28;;;12.52;39.56
76285;BME280;71676;50.998;7.098;2024-03-25T09:59:31;100127.97;;;12.84;36.39
76285;BME280;71676;50.998;7.098;2024-03-25T10:01:58;100125.22;;;12.96;39.13
76285;BME280;71676;50.998;7.098;2024-03-25T10:04:25;100124.97;;;13.15;38.14
76285;BME280;71676;50.998;7.098;2024-03-25T10:06:50;100111.06;;;13.19;38.17
76285;BME280;71676;50.998;7.098;2024-03-25T10:09:19;100114.19;;;13.44;37.72
76285;BME280;71676;50.998;7.098;2024-03-25T10:11:47;100110.75;;;13.42;36.75
76285;BME280;71676;50.998;7.098;2024-03-25T10:14:12;100107.41;;;13.34;36.29
76285;BME280;71676;50.998;7.098;2024-03-25T10:16:38;100108.28;;;13.34;36.38
76285;BME280;71676;50.998;7.098;2024-03-25T10:19:04;100103.16;;;13.31;35.54
76285;BME280;71676;50.998;7.098;2024-03-25T10:21:31;100104.63;;;13.49;34.21
76285;BME280;71676;50.998;7.098;2024-03-25T10:23:56;100090.50;;;13.70;36.38
76285;BME280;71676;50.998;7.098;2024-03-25T10:26:26;100086.84;;;13.83;36.57
76285;BME280;71676;50.998;7.098;2024-03-25T10:29:00;100089.19;;;13.98;36.31
76285;BME280;71676;50.998;7.098;2024-03-25T10:31:26;100084.00;;;14.43;37.02
76285;BME280;71676;50.998;7.098;2024-03-25T10:33:52;100074.97;;;14.64;36.33
76285;BME280;71676;50.998;7.098;2024-03-25T10:36:19;100075.25;;;14.92;35.88
76285;BME280;71676;50.998;7.098;2024-03-25T10:38:48;100066.94;;;15.16;32.37
76285;BME280;71676;50.998;7.098;2024-03-25T10:41:17;100073.44;;;15.33;31.86
76285;BME280;71676;50.998;7.098;2024-03-25T10:43:45;100065.19;;;15.54;33.89
76285;BME280;71676;50.998;7.098;2024-03-25T10:46:14;100051.19;;;15.93;33.79
76285;BME280;71676;50.998;7.098;2024-03-25T10:48:45;100043.84;;;16.09;31.84
76285;BME280;71676;50.998;7.098;2024-03-25T10:51:13;100042.84;;;16.13;30.96
76285;BME280;71676;50.998;7.098;2024-03-25T10:56:06;100033.50;;;16.38;32.84
76285;BME280;71676;50.998;7.098;2024-03-25T10:58:33;100029.75;;;16.48;32.06
76285;BME280;71676;50.998;7.098;2024-03-25T11:01:00;99998.91;;;16.36;31.83
76285;BME280;71676;50.998;7.098;2024-03-25T11:03:26;100029.03;;;16.43;31.13
76285;BME280;71676;50.998;7.098;2024-03-25T11:05:52;100018.16;;;16.29;30.34
76285;BME280;71676;50.998;7.098;2024-03-25T11:08:18;100022.78;;;16.79;30.75
76285;BME280;71676;50.998;7.098;2024-03-25T11:10:45;100013.09;;;16.84;29.72
76285;BME280;71676;50.998;7.098;2024-03-25T11:13:13;99998.50;;;16.17;29.24
76285;BME280;71676;50.998;7.098;2024-03-25T11:15:40;100013.38;;;16.74;29.27
76285;BME280;71676;50.998;7.098;2024-03-25T11:18:11;100010.19;;;16.93;29.55
76285;BME280;71676;50.998;7.098;2024-03-25T11:20:37;100000.75;;;17.44;29.93
76285;BME280;71676;50.998;7.098;2024-03-25T11:23:08;99998.78;;;17.77;27.00
76285;BME280;71676;50.998;7.098;2024-03-25T11:25:34;99992.28;;;17.64;27.83
76285;BME280;71676;50.998;7.098;2024-03-25T11:28:00;99990.72;;;17.58;29.09
76285;BME280;71676;50.998;7.098;2024-03-25T11:30:27;99991.72;;;17.79;26.76
76285;BME280;71676;50.998;7.098;2024-03-25T11:32:54;99984.91;;;17.50;26.95
76285;BME280;71676;50.998;7.098;2024-03-25T11:35:20;99986.16;;;17.39;26.65
76285;BME280;71676;50.998;7.098;2024-03-25T11:37:46;99988.59;;;17.70;25.60
76285;BME280;71676;50.998;7.098;2024-03-25T11:40:13;99975.94;;;17.59;23.86
76285;BME280;71676;50.998;7.098;2024-03-25T11:42:40;99968.44;;;17.48;25.53
76285;BME280;71676;50.998;7.098;2024-03-25T11:45:07;99969.75;;;17.61;26.40
76285;BME280;71676;50.998;7.098;2024-03-25T11:47:34;99962.25;;;17.52;25.27
76285;BME280;71676;50.998;7.098;2024-03-25T11:50:00;99960.78;;;17.70;26.28
76285;BME280;71676;50.998;7.098;2024-03-25T11:52:29;99957.78;;;17.81;27.52
76285;BME280;71676;50.998;7.098;2024-03-25T11:54:55;99946.47;;;17.82;25.92
76285;BME280;71676;50.998;7.098;2024-03-25T11:57:22;99944.53;;;17.88;26.68
76285;BME280;71676;50.998;7.098;2024-03-25T11:59:48;99943.50;;;17.92;26.43
76285;BME280;71676;50.998;7.098;2024-03-25T12:02:15;99944.00;;;17.77;26.81
76285;BME280;71676;50.998;7.098;2024-03-25T12:04:43;99926.31;;;18.10;24.69
76285;BME280;71676;50.998;7.098;2024-03-25T12:07:11;99932.50;;;18.30;22.90
76285;BME280;71676;50.998;7.098;2024-03-25T12:09:37;99922.72;;;17.89;20.95
76285;BME280;71676;50.998;7.098;2024-03-25T12:12:21;99935.91;;;17.60;22.90
76285;BME280;71676;50.998;7.098;2024-03-25T12:14:46;99928.88;;;17.62;23.22
76285;BME280;71676;50.998;7.098;2024-03-25T12:17:12;99918.72;;;17.79;23.00
76285;BME280;71676;50.998;7.098;2024-03-25T12:19:38;99925.22;;;17.68;21.89
76285;BME280;71676;50.998;7.098;2024-03-25T12:22:05;99922.50;;;17.71;21.44
76285;BME280;71676;50.998;7.098;2024-03-25T12:24:31;99911.13;;;17.73;23.40
76285;BME280;71676;50.998;7.098;2024-03-25T12:26:57;99898.47;;;17.87;22.63
76285;BME280;71676;50.998;7.098;2024-03-25T12:29:23;99899.78;;;17.99;22.79
76285;BME280;71676;50.998;7.098;2024-03-25T12:31:54;99897.84;;;18.04;24.10
76285;BME280;71676;50.998;7.098;2024-03-25T12:34:20;99892.47;;;18.08;23.03
76285;BME280;71676;50.998;7.098;2024-03-25T12:36:45;99885.66;;;18.04;22.79
76285;BME280;71676;50.998;7.098;2024-03-25T12:39:16;99888.94;;;17.86;21.95
76285;BME280;71676;50.998;7.098;2024-03-25T12:41:42;99880.75;;;17.95;22.61
76285;BME280;71676;50.998;7.098;2024-03-25T12:44:08;99877.38;;;17.93;23.92
76285;BME280;71676;50.998;7.098;2024-03-25T12:46:34;99873.81;;;17.96;23.34
76285;BME280;71676;50.998;7.098;2024-03-25T12:49:00;99875.16;;;18.06;22.38
76285;BME280;71676;50.998;7.098;2024-03-25T12:51:26;99877.34;;;17.95;23.05
76285;BME280;71676;50.998;7.098;2024-03-25T12:53:52;99872.16;;;17.69;22.49
76285;BME280;71676;50.998;7.098;2024-03-25T12:56:19;99867.25;;;17.61;23.26